Time;durP1;ratioP1;P1;durP2;ratioP2;P2;SDS_P1;SDS_P2;PMS_P1;PMS_P2;Temp;Humidity;BMP_temperature;BMP_pressure;BME280_temperature;BME280_humidity;BME280_pressure;Samples;Min_cycle;Max_cycle;Signal;HPM_P1;HPM_P2
2022/03/29 00:01:06;;;;;;;27.25;13.50;;;4.70;99.90;;;;;;5038964;28;20069;-72
2022/03/29 00:03:37;;;;;;;32.17;14.27;;;4.80;99.90;;;;;;5039219;28;20035;-72
2022/03/29 00:06:05;;;;;;;28.60;13.88;;;4.80;99.90;;;;;;5021969;28;20026;-72
2022/03/29 00:08:32;;;;;;;29.67;14.52;;;4.80;99.90;;;;;;5037630;28;20021;-72
2022/03/29 00:10:59;;;;;;;30.80;14.15;;;4.80;99.90;;;;;;5039025;28;20313;-72
2022/03/29 00:13:27;;;;;;;27.08;13.48;;;4.90;99.90;;;;;;5021616;28;20477;-72
2022/03/29 00:15:54;;;;;;;29.80;14.63;;;4.90;99.90;;;;;;5021570;28;20037;-72
2022/03/29 00:18:22;;;;;;;33.05;14.93;;;4.90;99.90;;;;;;5038205;28;20021;-72
2022/03/29 00:20:49;;;;;;;30.95;14.60;;;5.00;99.90;;;;;;5037917;28;20079;-72
2022/03/29 00:23:18;;;;;;;28.85;13.68;;;5.00;99.90;;;;;;5037758;28;20116;-72
2022/03/29 00:25:46;;;;;;;29.70;15.43;;;5.10;99.90;;;;;;5038356;28;20064;-72
2022/03/29 00:28:14;;;;;;;32.88;15.13;;;5.10;99.90;;;;;;5021318;28;20021;-72
2022/03/29 00:30:41;;;;;;;30.63;13.65;;;5.20;99.90;;;;;;5038296;28;20025;-72
2022/03/29 00:33:08;;;;;;;31.15;15.15;;;5.20;99.90;;;;;;5037937;28;20018;-72
2022/03/29 00:35:35;;;;;;;32.45;14.20;;;5.20;99.90;;;;;;5004264;28;20033;-72
2022/03/29 00:38:02;;;;;;;34.40;16.15;;;5.30;99.90;;;;;;5037967;28;20341;-72
2022/03/29 00:40:30;;;;;;;32.83;15.05;;;5.30;99.90;;;;;;5038265;28;20043;-72
2022/03/29 00:42:57;;;;;;;38.45;18.00;;;5.40;99.90;;;;;;5020403;28;20017;-72
2022/03/29 00:45:25;;;;;;;31.08;16.08;;;5.40;99.90;;;;;;5020779;28;20021;-72
2022/03/29 00:47:52;;;;;;;36.00;17.15;;;5.50;99.90;;;;;;5038352;28;20029;-72
2022/03/29 00:50:20;;;;;;;35.70;16.83;;;5.60;99.90;;;;;;5038020;28;20025;-72
2022/03/29 00:52:48;;;;;;;41.42;19.77;;;5.60;99.90;;;;;;5037614;28;20036;-72
2022/03/29 00:55:16;;;;;;;40.83;19.30;;;5.60;99.90;;;;;;5038273;28;20022;-72
2022/03/29 00:57:46;;;;;;;46.15;21.45;;;5.70;99.90;;;;;;5037747;28;20025;-72
2022/03/29 01:00:16;;;;;;;41.65;19.05;;;5.80;99.90;;;;;;5037739;28;20033;-72
2022/03/29 01:02:44;;;;;;;36.95;18.65;;;5.80;99.90;;;;;;5037049;28;20328;-72
2022/03/29 01:05:12;;;;;;;48.65;23.83;;;5.90;99.90;;;;;;5037343;28;20076;-72
2022/03/29 01:07:40;;;;;;;46.85;21.90;;;6.00;99.90;;;;;;5037821;28;20392;-72
2022/03/29 01:10:09;;;;;;;51.28;23.35;;;6.00;99.90;;;;;;5038254;28;20026;-72
2022/03/29 01:12:37;;;;;;;49.83;23.30;;;6.10;99.90;;;;;;5037414;28;20112;-72
2022/03/29 01:15:12;;;;;;;38.65;18.83;;;6.20;99.90;;;;;;5037791;28;20022;-72
2022/03/29 01:17:41;;;;;;;54.20;24.63;;;6.30;99.90;;;;;;5037589;28;20344;-72
2022/03/29 01:20:18;;;;;;;48.10;24.00;;;6.30;99.90;;;;;;5037818;28;20021;-72
2022/03/29 01:22:48;;;;;;;49.85;23.83;;;6.30;99.90;;;;;;5037433;28;20029;-72
2022/03/29 01:25:25;;;;;;;46.33;23.15;;;6.30;99.90;;;;;;5037709;28;20025;-72
2022/03/29 01:27:53;;;;;;;49.75;25.27;;;6.40;99.90;;;;;;5037297;28;20029;-72
2022/03/29 01:30:21;;;;;;;49.28;22.55;;;6.40;99.90;;;;;;5037390;28;20045;-72
2022/03/29 01:36:11;;;;;;;49.63;23.55;;;6.50;99.90;;;;;;5037128;28;20455;-72
2022/03/29 01:38:40;;;;;;;48.20;23.27;;;6.50;99.90;;;;;;5003378;28;20021;-72
2022/03/29 01:41:07;;;;;;;47.50;22.55;;;6.40;99.90;;;;;;5037366;28;20067;-72
2022/03/29 01:43:34;;;;;;;51.35;24.27;;;6.40;99.90;;;;;;5019927;28;20572;-72
2022/03/29 01:46:02;;;;;;;54.60;24.90;;;6.40;99.90;;;;;;5019692;28;20025;-72
2022/03/29 01:48:29;;;;;;;47.40;23.70;;;6.40;99.90;;;;;;5037048;28;20026;-72
2022/03/29 01:50:56;;;;;;;48.78;23.40;;;6.40;99.90;;;;;;5037765;28;20030;-72
2022/03/29 01:53:28;;;;;;;54.42;23.85;;;6.40;99.90;;;;;;5037606;28;20029;-72
2022/03/29 01:55:59;;;;;;;50.80;23.65;;;6.40;99.90;;;;;;5037417;28;20021;-72
2022/03/29 01:58:31;;;;;;;49.63;22.85;;;6.40;99.90;;;;;;5019526;28;20034;-72
2022/03/29 02:00:59;;;;;;;47.03;21.45;;;6.40;99.90;;;;;;5019621;28;20036;-72
2022/03/29 02:03:29;;;;;;;42.85;21.23;;;6.30;99.90;;;;;;5037236;28;20022;-72
2022/03/29 02:05:59;;;;;;;39.63;20.08;;;6.30;99.90;;;;;;5037157;28;20029;-72
2022/03/29 02:08:27;;;;;;;37.35;18.17;;;6.30;99.90;;;;;;5036805;28;20053;-72
2022/03/29 02:10:55;;;;;;;38.97;18.23;;;6.30;99.90;;;;;;5037321;28;20080;-72
2022/03/29 02:13:22;;;;;;;36.33;18.38;;;6.30;99.90;;;;;;5036809;28;20100;-72
2022/03/29 02:15:49;;;;;;;34.60;18.27;;;6.30;99.90;;;;;;5019712;28;20014;-72
2022/03/29 02:18:17;;;;;;;31.65;16.38;;;6.30;99.90;;;;;;5037306;28;20431;-72
2022/03/29 02:20:44;;;;;;;33.47;16.85;;;6.30;99.90;;;;;;5019499;28;20029;-72
2022/03/29 02:23:15;;;;;;;32.90;17.02;;;6.20;99.90;;;;;;5019356;28;20028;-72
2022/03/29 02:25:47;;;;;;;34.83;17.27;;;6.30;99.90;;;;;;5020634;28;20025;-72
2022/03/29 02:28:15;;;;;;;31.42;16.10;;;6.30;99.90;;;;;;5036969;28;20056;-72
2022/03/29 02:30:43;;;;;;;38.47;18.70;;;6.30;99.90;;;;;;5037178;28;20045;-72
2022/03/29 02:33:12;;;;;;;30.63;15.38;;;6.30;99.90;;;;;;5040320;28;20022;-72
2022/03/29 02:35:39;;;;;;;29.48;15.00;;;6.20;99.90;;;;;;5039970;28;20029;-72
2022/03/29 02:38:07;;;;;;;30.65;16.38;;;6.20;99.90;;;;;;5022724;28;20026;-72
2022/03/29 02:40:34;;;;;;;31.10;15.82;;;6.30;99.90;;;;;;5040348;28;20026;-72
2022/03/29 02:43:02;;;;;;;33.60;16.13;;;6.30;99.90;;;;;;5040179;28;20014;-72
2022/03/29 02:45:29;;;;;;;27.67;13.65;;;6.30;99.90;;;;;;5022624;28;20116;-72
2022/03/29 02:48:00;;;;;;;28.77;15.65;;;6.20;99.90;;;;;;5039949;28;20029;-72
2022/03/29 02:50:28;;;;;;;30.45;14.88;;;6.20;99.90;;;;;;5040143;28;20025;-72
2022/03/29 02:52:58;;;;;;;32.40;15.80;;;6.20;99.90;;;;;;5039989;28;20045;-72
2022/03/29 02:55:27;;;;;;;28.88;14.45;;;6.20;99.90;;;;;;5040005;28;20026;-72
2022/03/29 02:57:55;;;;;;;33.75;16.80;;;6.10;99.90;;;;;;5039967;28;20025;-72
2022/03/29 03:00:22;;;;;;;30.83;15.80;;;6.10;99.90;;;;;;5022307;28;20021;-72
2022/03/29 03:02:54;;;;;;;28.88;14.75;;;6.10;99.90;;;;;;5039789;28;20479;-72
2022/03/29 03:05:24;;;;;;;31.10;15.52;;;6.20;99.90;;;;;;5039883;28;20036;-72
2022/03/29 03:07:52;;;;;;;32.13;14.40;;;6.10;99.90;;;;;;5039589;28;20429;-72
2022/03/29 03:10:19;;;;;;;31.80;15.60;;;6.10;99.90;;;;;;5039747;28;20026;-72
2022/03/29 03:12:48;;;;;;;31.23;14.35;;;6.10;99.90;;;;;;5021351;28;20441;-72
2022/03/29 03:15:18;;;;;;;29.73;14.63;;;6.00;99.90;;;;;;5039805;28;20360;-72
2022/03/29 03:17:46;;;;;;;29.17;14.88;;;6.00;99.90;;;;;;5039831;28;20417;-72
2022/03/29 03:20:14;;;;;;;30.15;14.43;;;6.00;99.90;;;;;;5022638;28;20029;-72
2022/03/29 03:22:41;;;;;;;28.88;15.02;;;6.00;99.90;;;;;;5039457;28;20432;-72
2022/03/29 03:25:10;;;;;;;27.90;14.38;;;6.00;99.90;;;;;;5039579;28;20030;-72
2022/03/29 03:27:40;;;;;;;30.58;14.68;;;5.90;99.90;;;;;;5039310;28;20079;-72
2022/03/29 03:30:13;;;;;;;28.85;14.50;;;6.00;99.90;;;;;;5039164;28;20041;-72
2022/03/29 03:32:41;;;;;;;29.73;13.90;;;5.90;99.90;;;;;;5039047;28;20100;-72
2022/03/29 03:35:10;;;;;;;30.50;14.68;;;5.90;99.90;;;;;;5039625;28;20120;-72
2022/03/29 03:37:39;;;;;;;27.70;13.90;;;5.90;99.90;;;;;;5038868;28;20460;-72
2022/03/29 03:40:09;;;;;;;31.27;14.25;;;5.90;99.90;;;;;;5039154;28;20413;-72
2022/03/29 03:42:37;;;;;;;28.25;14.23;;;5.90;99.90;;;;;;5039193;28;20029;-72
2022/03/29 03:45:06;;;;;;;31.95;14.77;;;5.90;99.90;;;;;;5039109;28;20038;-72
2022/03/29 03:47:34;;;;;;;29.77;14.73;;;5.90;99.90;;;;;;5021374;28;20025;-72
2022/03/29 03:50:03;;;;;;;30.95;14.48;;;6.00;99.90;;;;;;5039496;28;20080;-72
2022/03/29 03:52:30;;;;;;;30.83;13.73;;;6.00;99.90;;;;;;5039025;28;20321;-72
2022/03/29 03:54:57;;;;;;;34.15;15.30;;;6.00;99.90;;;;;;5021646;28;20079;-72
2022/03/29 03:57:24;;;;;;;26.48;13.68;;;6.00;99.90;;;;;;5021051;28;20120;-72
2022/03/29 03:59:55;;;;;;;32.13;14.30;;;6.00;99.90;;;;;;5038728;28;20512;-72
2022/03/29 04:02:24;;;;;;;32.13;15.07;;;6.00;99.90;;;;;;5021617;28;20029;-72
2022/03/29 04:04:51;;;;;;;27.42;13.75;;;6.00;99.90;;;;;;5038833;28;20025;-72
2022/03/29 04:07:19;;;;;;;27.88;13.68;;;6.00;99.90;;;;;;5038864;28;20369;-72
2022/03/29 04:09:46;;;;;;;31.60;14.38;;;6.00;99.90;;;;;;5021010;28;20025;-72
2022/03/29 04:12:13;;;;;;;29.90;15.40;;;5.90;99.90;;;;;;5021081;28;20024;-72
2022/03/29 04:14:41;;;;;;;26.38;12.95;;;5.90;99.90;;;;;;5038691;28;20425;-72
2022/03/29 04:17:10;;;;;;;30.88;14.05;;;5.90;99.90;;;;;;5038377;28;20368;-72
2022/03/29 04:19:37;;;;;;;28.15;13.75;;;5.90;99.90;;;;;;5038410;28;20100;-72
2022/03/29 04:22:05;;;;;;;28.48;14.68;;;6.00;99.90;;;;;;5020833;28;20328;-72
2022/03/29 04:24:33;;;;;;;30.15;14.63;;;6.00;99.90;;;;;;5038746;28;20097;-72
2022/03/29 04:27:01;;;;;;;30.02;14.13;;;6.00;99.90;;;;;;5038780;28;20032;-72
2022/03/29 04:29:29;;;;;;;28.52;14.35;;;6.00;99.90;;;;;;5038734;28;20048;-72
2022/03/29 04:31:56;;;;;;;32.22;15.10;;;6.00;99.90;;;;;;5020515;28;20035;-72
2022/03/29 04:34:23;;;;;;;30.35;13.95;;;6.00;99.90;;;;;;5038115;28;20083;-72
2022/03/29 04:36:51;;;;;;;30.58;15.70;;;6.00;99.90;;;;;;5038002;28;20044;-72
2022/03/29 04:39:18;;;;;;;33.58;15.73;;;6.00;99.90;;;;;;5037282;28;20294;-72
2022/03/29 04:41:47;;;;;;;32.42;15.57;;;6.00;99.90;;;;;;5038806;28;20079;-72
2022/03/29 04:44:14;;;;;;;30.88;15.25;;;6.00;99.90;;;;;;5037965;28;20420;-72
2022/03/29 04:46:41;;;;;;;33.63;16.40;;;6.00;99.90;;;;;;5038360;28;20025;-72
2022/03/29 04:49:09;;;;;;;34.20;17.17;;;6.00;99.90;;;;;;5037826;28;20366;-72
2022/03/29 04:51:36;;;;;;;33.80;16.20;;;6.00;99.90;;;;;;5020394;28;20112;-72
2022/03/29 04:54:04;;;;;;;35.78;18.35;;;6.00;99.90;;;;;;5019667;28;20024;-72
2022/03/29 04:56:33;;;;;;;35.15;18.00;;;6.00;99.90;;;;;;5038312;28;20018;-73
2022/03/29 04:59:00;;;;;;;35.10;16.92;;;6.10;99.90;;;;;;5038040;28;20031;-73
2022/03/29 05:01:28;;;;;;;34.35;16.83;;;6.10;99.90;;;;;;5038211;28;20056;-73
2022/03/29 05:03:55;;;;;;;39.75;17.92;;;6.10;99.90;;;;;;5020106;28;20088;-73
2022/03/29 05:06:26;;;;;;;37.35;18.23;;;6.10;99.90;;;;;;5038150;28;20313;-72
2022/03/29 05:08:54;;;;;;;35.85;16.83;;;6.10;99.90;;;;;;5037650;28;20368;-73
2022/03/29 05:11:21;;;;;;;38.72;18.80;;;6.10;99.90;;;;;;5037572;28;20029;-73
2022/03/29 05:13:49;;;;;;;36.55;16.58;;;6.10;99.90;;;;;;5037549;28;20031;-73
2022/03/29 05:16:17;;;;;;;38.83;17.60;;;6.00;99.90;;;;;;5037435;28;20112;-73
2022/03/29 05:18:45;;;;;;;37.60;17.35;;;6.00;99.90;;;;;;5037406;28;20479;-73
2022/03/29 05:21:13;;;;;;;37.63;18.10;;;6.10;99.90;;;;;;5036739;28;20450;-73
2022/03/29 05:23:40;;;;;;;34.85;18.42;;;6.10;99.90;;;;;;5038466;28;20354;-73
2022/03/29 05:26:07;;;;;;;34.97;17.40;;;6.10;99.90;;;;;;5037680;28;20030;-73
2022/03/29 05:28:35;;;;;;;35.95;17.85;;;6.00;99.90;;;;;;5037352;28;20075;-72
2022/03/29 05:31:02;;;;;;;34.42;18.90;;;6.10;99.90;;;;;;5019871;28;20449;-73
2022/03/29 05:33:30;;;;;;;33.72;16.90;;;6.10;99.90;;;;;;5037253;28;20041;-73
2022/03/29 05:35:57;;;;;;;31.83;15.80;;;6.10;99.90;;;;;;5037680;28;20053;-73
2022/03/29 05:38:25;;;;;;;43.30;17.70;;;6.10;99.90;;;;;;5037275;28;20119;-73
2022/03/29 05:40:52;;;;;;;35.75;16.25;;;6.10;99.90;;;;;;5020056;28;20329;-72
2022/03/29 05:43:20;;;;;;;33.97;16.98;;;6.20;99.90;;;;;;5003423;28;20025;-73
2022/03/29 05:48:52;;;;;;;31.35;15.25;;;6.20;99.90;;;;;;5037278;28;20029;-73
2022/03/29 05:51:22;;;;;;;34.67;17.20;;;6.20;99.90;;;;;;5037490;28;20047;-73
2022/03/29 05:53:51;;;;;;;37.35;18.13;;;6.20;99.90;;;;;;5019645;28;20327;-72
2022/03/29 05:56:18;;;;;;;36.72;17.38;;;6.20;99.90;;;;;;5037045;28;20026;-73
2022/03/29 05:58:46;;;;;;;34.65;17.33;;;6.20;99.90;;;;;;5037030;28;20036;-72
2022/03/29 06:01:13;;;;;;;38.05;18.52;;;6.20;99.90;;;;;;5037757;28;20052;-73
2022/03/29 06:03:41;;;;;;;32.78;16.38;;;6.20;99.90;;;;;;5036335;28;20048;-73
2022/03/29 06:06:13;;;;;;;37.38;17.15;;;6.20;99.90;;;;;;5005105;28;20397;-73
2022/03/29 06:08:41;;;;;;;40.03;16.15;;;6.20;99.90;;;;;;5023834;28;20067;-72
2022/03/29 06:11:08;;;;;;;37.83;17.02;;;6.20;99.90;;;;;;5040618;28;20022;-73
2022/03/29 06:13:36;;;;;;;33.40;16.50;;;6.20;99.90;;;;;;5023228;28;20302;-73
2022/03/29 06:16:04;;;;;;;35.47;17.58;;;6.20;99.90;;;;;;5040646;28;20033;-73
2022/03/29 06:18:31;;;;;;;35.58;17.17;;;6.20;99.90;;;;;;5040633;28;20040;-73
2022/03/29 06:20:59;;;;;;;32.22;16.30;;;6.20;99.90;;;;;;5041186;28;20412;-73
2022/03/29 06:23:28;;;;;;;37.10;18.40;;;6.20;99.90;;;;;;5040844;28;20026;-74
2022/03/29 06:25:55;;;;;;;34.33;16.60;;;6.30;99.90;;;;;;5040998;28;20317;-74
2022/03/29 06:28:22;;;;;;;43.05;18.10;;;6.30;99.90;;;;;;5040475;28;20018;-73
2022/03/29 06:30:50;;;;;;;42.58;19.27;;;6.30;99.90;;;;;;5022824;28;20021;-73
2022/03/29 06:33:20;;;;;;;36.47;17.30;;;6.30;99.90;;;;;;5022831;28;20025;-73
2022/03/29 06:35:49;;;;;;;37.65;17.88;;;6.30;99.90;;;;;;5040576;28;20464;-72
2022/03/29 06:38:21;;;;;;;33.42;16.42;;;6.40;99.90;;;;;;5040260;28;20044;-70
2022/03/29 06:40:50;;;;;;;37.33;17.42;;;6.30;99.90;;;;;;5040166;28;20431;-70
2022/03/29 06:43:18;;;;;;;32.92;16.27;;;6.30;99.90;;;;;;5040207;28;20033;-70
2022/03/29 06:45:45;;;;;;;33.50;15.68;;;6.40;99.90;;;;;;5006231;28;20051;-71
2022/03/29 06:48:13;;;;;;;33.58;15.35;;;6.40;99.90;;;;;;5040257;28;20076;-69
2022/03/29 06:50:40;;;;;;;34.45;17.67;;;6.40;99.90;;;;;;5040067;28;20097;-72
2022/03/29 06:53:08;;;;;;;30.95;15.00;;;6.40;99.90;;;;;;5040534;28;20029;-71
2022/03/29 06:55:36;;;;;;;37.20;16.55;;;6.50;99.90;;;;;;5040120;28;20029;-71
2022/03/29 06:58:05;;;;;;;32.58;15.00;;;6.40;99.90;;;;;;5039994;28;20022;-72
2022/03/29 07:00:32;;;;;;;32.25;16.52;;;6.50;99.90;;;;;;5022386;28;20481;-71
2022/03/29 07:03:00;;;;;;;35.25;16.75;;;6.50;99.90;;;;;;5022714;28;20026;-71
2022/03/29 07:05:29;;;;;;;39.97;17.70;;;6.50;99.90;;;;;;5022440;28;20440;-70
2022/03/29 07:07:57;;;;;;;33.22;15.45;;;6.50;99.90;;;;;;5039787;28;20103;-70
2022/03/29 07:13:10;;;;;;;34.50;15.10;;;6.60;99.90;;;;;;5039925;28;20033;-70
2022/03/29 07:15:37;;;;;;;34.53;16.45;;;6.70;99.90;;;;;;5022276;28;20082;-71
2022/03/29 07:18:06;;;;;;;34.72;16.98;;;6.70;99.90;;;;;;5039483;28;20017;-69
2022/03/29 07:20:33;;;;;;;31.90;16.42;;;6.80;99.90;;;;;;5039584;28;20022;-71
2022/03/29 07:23:01;;;;;;;34.65;16.35;;;6.80;99.90;;;;;;5040074;28;20075;-72
2022/03/29 07:25:31;;;;;;;30.33;15.25;;;6.90;99.90;;;;;;5039489;28;20325;-70
2022/03/29 07:27:59;;;;;;;33.47;16.00;;;7.00;99.90;;;;;;5039608;28;20032;-71
2022/03/29 07:30:27;;;;;;;28.05;15.02;;;7.10;99.90;;;;;;5038824;28;20028;-70
2022/03/29 07:33:00;;;;;;;32.40;16.52;;;7.20;99.90;;;;;;5039392;28;20025;-70
2022/03/29 07:35:29;;;;;;;32.40;16.13;;;7.30;99.90;;;;;;5021710;28;20394;-72
2022/03/29 07:37:57;;;;;;;31.20;15.63;;;7.40;99.90;;;;;;5038966;28;20073;-69
2022/03/29 07:40:25;;;;;;;31.08;15.95;;;7.60;99.90;;;;;;5021892;28;20029;-68
2022/03/29 07:42:53;;;;;;;36.03;17.63;;;7.70;99.90;;;;;;5039112;28;20025;-70
2022/03/29 07:45:22;;;;;;;35.28;15.48;;;7.70;99.90;;;;;;5021496;28;20056;-69
2022/03/29 07:47:52;;;;;;;30.90;15.38;;;7.80;99.90;;;;;;5039122;28;20030;-69
2022/03/29 07:50:20;;;;;;;34.20;16.70;;;7.90;99.90;;;;;;5038866;28;20065;-70
2022/03/29 07:52:47;;;;;;;36.47;16.55;;;8.10;99.90;;;;;;5038816;28;20052;-71
2022/03/29 07:55:14;;;;;;;38.13;19.30;;;8.20;99.90;;;;;;5038803;28;20033;-71
2022/03/29 07:57:42;;;;;;;27.70;14.88;;;8.30;99.90;;;;;;5021274;28;20026;-70
2022/03/29 08:00:49;;;;;;;33.20;15.27;;;8.30;99.90;;;;;;5039473;28;20029;-70
2022/03/29 08:03:11;;;;;;;26.87;14.10;;;8.30;99.90;;;;;;5036165;28;20025;-69
2022/03/29 08:05:41;;;;;;;26.63;14.02;;;8.30;99.90;;;;;;5039224;28;20025;-68
2022/03/29 08:08:16;;;;;;;28.65;15.30;;;8.30;99.90;;;;;;5038531;28;20029;-68
2022/03/29 08:10:45;;;;;;;27.42;15.05;;;8.30;99.90;;;;;;5037982;28;20041;-69
2022/03/29 08:13:14;;;;;;;31.95;14.38;;;8.20;99.90;;;;;;5038435;28;20030;-69
2022/03/29 08:15:44;;;;;;;26.77;14.10;;;8.20;99.90;;;;;;5039252;28;20025;-69
2022/03/29 08:18:11;;;;;;;28.65;14.35;;;8.20;99.90;;;;;;5038336;28;20019;-69
2022/03/29 08:20:39;;;;;;;28.13;13.88;;;8.20;99.90;;;;;;5038785;28;20018;-70
2022/03/29 08:23:08;;;;;;;31.38;13.73;;;8.20;99.90;;;;;;5038356;28;20052;-69
2022/03/29 08:25:37;;;;;;;27.60;14.48;;;8.30;99.90;;;;;;5020776;28;20106;-69
2022/03/29 08:28:05;;;;;;;26.25;14.77;;;8.40;99.90;;;;;;5020351;28;20033;-71
2022/03/29 08:30:34;;;;;;;29.48;12.82;;;8.50;99.90;;;;;;5038564;28;20100;-69
2022/03/29 08:33:02;;;;;;;27.17;14.20;;;8.60;99.90;;;;;;5038034;28;20021;-70
2022/03/29 08:35:31;;;;;;;26.00;13.75;;;8.70;99.90;;;;;;5038423;28;20079;-71
2022/03/29 08:37:58;;;;;;;26.38;14.27;;;8.70;99.90;;;;;;5037876;28;20050;-70
2022/03/29 08:40:28;;;;;;;28.17;14.43;;;8.70;99.90;;;;;;5037906;28;20330;-71
2022/03/29 08:42:58;;;;;;;28.20;15.02;;;8.80;99.90;;;;;;5020465;28;20029;-70
2022/03/29 08:45:28;;;;;;;27.42;15.98;;;8.80;99.90;;;;;;5037962;28;20134;-71
2022/03/29 08:47:57;;;;;;;29.35;14.73;;;8.80;99.90;;;;;;5020347;28;20106;-69
2022/03/29 08:50:36;;;;;;;27.42;15.00;;;8.80;99.90;;;;;;5037866;28;20030;-69
2022/03/29 08:53:07;;;;;;;30.98;14.65;;;8.80;99.90;;;;;;5036985;28;20499;-69
2022/03/29 08:55:35;;;;;;;27.88;14.63;;;8.70;99.90;;;;;;5037658;28;20337;-70
2022/03/29 08:58:02;;;;;;;33.83;14.75;;;8.70;99.90;;;;;;5020481;28;20056;-69
2022/03/29 09:00:30;;;;;;;27.70;14.70;;;8.70;99.90;;;;;;5020368;28;20053;-68
2022/03/29 09:02:58;;;;;;;30.90;14.13;;;8.70;99.90;;;;;;5037544;28;20051;-68
2022/03/29 09:05:34;;;;;;;27.70;14.77;;;8.60;99.90;;;;;;5020144;28;20037;-68
2022/03/29 09:08:09;;;;;;;33.17;15.43;;;8.70;99.90;;;;;;5037859;28;20037;-69
2022/03/29 09:10:49;;;;;;;27.33;14.20;;;8.70;99.90;;;;;;5038695;28;20401;-68
2022/03/29 09:13:27;;;;;;;31.20;14.80;;;8.70;99.90;;;;;;5037541;28;20112;-71
2022/03/29 09:15:57;;;;;;;25.67;14.07;;;8.80;99.90;;;;;;5037999;28;20049;-71
2022/03/29 09:18:26;;;;;;;28.85;13.43;;;9.00;99.90;;;;;;5037330;28;20033;-69
2022/03/29 09:21:16;;;;;;;28.67;14.15;;;9.00;99.90;;;;;;5019939;28;20045;-71
2022/03/29 09:24:04;;;;;;;26.70;14.32;;;9.10;99.90;;;;;;5037368;28;20100;-67
2022/03/29 09:26:32;;;;;;;29.95;15.63;;;9.10;99.90;;;;;;5020385;28;20398;-65
2022/03/29 09:29:00;;;;;;;27.45;13.85;;;9.10;99.90;;;;;;5020518;28;20105;-67
2022/03/29 09:31:28;;;;;;;30.98;14.77;;;9.20;99.90;;;;;;5037697;28;20017;-66
2022/03/29 09:34:18;;;;;;;37.15;15.50;;;9.30;99.90;;;;;;5036729;28;20329;-66
2022/03/29 09:36:52;;;;;;;29.27;15.32;;;9.40;99.90;;;;;;5016129;28;20084;-66
2022/03/29 09:39:44;;;;;;;31.80;15.20;;;9.50;99.90;;;;;;5018124;28;20086;-67
2022/03/29 09:42:17;;;;;;;30.48;14.77;;;9.60;99.90;;;;;;5021546;28;20444;-67
2022/03/29 09:44:51;;;;;;;29.00;15.40;;;9.80;99.90;;;;;;5021467;28;20430;-67
2022/03/29 09:47:21;;;;;;;29.98;14.70;;;9.90;99.90;;;;;;5021392;28;20060;-66
2022/03/29 09:49:54;;;;;;;30.08;16.65;;;10.00;99.90;;;;;;5021589;28;20034;-66
2022/03/29 09:52:23;;;;;;;27.80;14.85;;;10.20;99.90;;;;;;5020264;28;20057;-66
2022/03/29 09:55:16;;;;;;;27.38;15.55;;;10.40;99.90;;;;;;5021361;28;20100;-66
2022/03/29 09:57:46;;;;;;;28.27;14.52;;;10.60;99.90;;;;;;5021561;28;20352;-67
2022/03/29 10:00:43;;;;;;;26.63;14.38;;;10.60;99.90;;;;;;5021803;28;20335;-66
2022/03/29 10:03:12;;;;;;;26.02;14.00;;;10.50;99.90;;;;;;5021192;28;20422;-80
